createdAt,value
2018-09-30T00:00:33.247Z,99.90
2018-09-30T00:03:01.800Z,99.90
2018-09-30T00:05:30.441Z,99.90
2018-09-30T00:07:58.971Z,99.90
2018-09-30T00:10:28.247Z,99.90
2018-09-30T00:12:56.756Z,99.90
2018-09-30T00:15:25.310Z,99.90
2018-09-30T00:17:53.964Z,99.90
2018-09-30T00:20:22.458Z,99.90
2018-09-30T00:22:51.006Z,99.90
2018-09-30T00:25:24.808Z,99.90
2018-09-30T00:27:53.377Z,99.90
2018-09-30T00:30:21.899Z,99.90
2018-09-30T00:32:50.789Z,99.90
2018-09-30T00:35:19.270Z,99.90
2018-09-30T00:37:47.768Z,99.90
2018-09-30T00:40:16.231Z,99.90
2018-09-30T00:42:44.767Z,99.90
2018-09-30T00:45:13.859Z,99.90
2018-09-30T00:47:42.453Z,99.90
2018-09-30T00:50:11.227Z,99.90
2018-09-30T00:52:39.799Z,99.90
2018-09-30T00:55:08.288Z,99.90
2018-09-30T00:57:36.796Z,99.90
2018-09-30T01:00:05.850Z,99.90
2018-09-30T01:02:34.383Z,99.90
2018-09-30T01:05:02.955Z,99.90
2018-09-30T01:07:31.528Z,99.90
2018-09-30T01:10:00.064Z,99.90
2018-09-30T01:12:28.611Z,99.90
2018-09-30T01:14:57.170Z,99.90
2018-09-30T01:17:25.676Z,99.90
2018-09-30T01:19:54.215Z,99.90
2018-09-30T01:22:22.849Z,99.90
2018-09-30T01:24:51.367Z,99.90
2018-09-30T01:27:19.887Z,99.90
2018-09-30T01:29:48.395Z,99.90
2018-09-30T01:32:16.928Z,99.90
2018-09-30T01:34:45.402Z,99.90
2018-09-30T01:37:13.973Z,99.90
2018-09-30T01:39:42.570Z,99.90
2018-09-30T01:42:11.112Z,99.90
2018-09-30T01:44:39.598Z,99.90
2018-09-30T01:47:08.109Z,99.90
2018-09-30T01:49:36.594Z,99.90
2018-09-30T01:52:16.249Z,99.90
2018-09-30T01:54:44.790Z,99.90
2018-09-30T01:57:13.300Z,99.90
2018-09-30T01:59:41.803Z,99.90
2018-09-30T02:02:10.335Z,99.90
2018-09-30T02:04:38.908Z,99.90
2018-09-30T02:07:07.462Z,99.90
2018-09-30T02:09:36.042Z,99.90
2018-09-30T02:12:04.534Z,99.90
2018-09-30T02:14:33.056Z,99.90
2018-09-30T02:17:01.567Z,99.90
2018-09-30T02:19:30.213Z,99.90
2018-09-30T02:21:58.706Z,99.90
2018-09-30T02:24:27.344Z,99.90
2018-09-30T02:26:55.820Z,99.90
2018-09-30T02:29:24.329Z,99.90
2018-09-30T02:31:52.813Z,99.90
2018-09-30T02:34:21.389Z,99.90
2018-09-30T02:36:49.949Z,99.90
2018-09-30T02:39:18.538Z,99.90
2018-09-30T02:41:47.052Z,99.90
2018-09-30T02:44:16.109Z,99.90
2018-09-30T02:46:44.614Z,99.90
2018-09-30T02:49:13.177Z,99.90
2018-09-30T02:51:41.730Z,99.90
2018-09-30T02:54:10.281Z,99.90
2018-09-30T02:56:38.774Z,99.90
2018-09-30T02:59:07.345Z,99.90
2018-09-30T03:01:35.873Z,99.90
2018-09-30T03:04:04.394Z,99.90
2018-09-30T03:06:38.225Z,99.90
2018-09-30T03:09:18.067Z,99.90
2018-09-30T03:11:46.621Z,99.90
2018-09-30T03:14:16.115Z,99.90
2018-09-30T03:16:45.582Z,99.90
2018-09-30T03:19:14.531Z,99.90
2018-09-30T03:21:43.140Z,99.90
2018-09-30T03:24:12.290Z,99.90
2018-09-30T03:26:41.585Z,99.90
2018-09-30T03:29:10.118Z,99.90
2018-09-30T03:31:38.614Z,99.90
2018-09-30T03:34:07.551Z,99.90
2018-09-30T03:36:36.100Z,99.90
2018-09-30T03:39:05.449Z,99.90
2018-09-30T03:41:33.929Z,99.90
2018-09-30T03:44:02.519Z,99.90
2018-09-30T03:46:31.137Z,99.90
2018-09-30T03:48:59.658Z,99.90
2018-09-30T03:51:28.194Z,99.90
2018-09-30T03:53:57.719Z,99.90
2018-09-30T03:56:26.241Z,99.90
2018-09-30T03:58:54.741Z,99.90
2018-09-30T04:01:23.225Z,99.90
2018-09-30T04:03:51.775Z,99.90
2018-09-30T04:06:20.247Z,99.90
2018-09-30T04:08:48.748Z,99.90
2018-09-30T04:11:17.255Z,99.90
2018-09-30T04:13:45.757Z,99.90
2018-09-30T04:16:14.289Z,99.90
2018-09-30T04:18:42.807Z,99.90
2018-09-30T04:21:11.408Z,99.90
2018-09-30T04:23:39.906Z,99.90
2018-09-30T04:26:09.371Z,99.90
2018-09-30T04:28:37.863Z,99.90
2018-09-30T04:31:06.493Z,99.90
2018-09-30T04:33:35.020Z,99.90
2018-09-30T04:36:03.630Z,99.90
2018-09-30T04:38:32.173Z,99.90
2018-09-30T04:41:00.681Z,99.90
2018-09-30T04:43:29.177Z,99.90
2018-09-30T04:45:58.561Z,99.90
2018-09-30T04:48:27.045Z,99.90
2018-09-30T04:50:56.220Z,99.90
2018-09-30T04:53:24.765Z,99.90
2018-09-30T04:55:53.270Z,99.90
2018-09-30T04:58:21.808Z,99.90
2018-09-30T05:00:50.359Z,99.90
2018-09-30T05:03:18.870Z,99.90
2018-09-30T05:05:47.377Z,99.90
2018-09-30T05:08:17.056Z,99.90
2018-09-30T05:10:46.271Z,99.90
2018-09-30T05:13:14.832Z,99.90
2018-09-30T05:15:43.323Z,99.90
2018-09-30T05:18:11.819Z,99.90
2018-09-30T05:20:40.372Z,99.90
2018-09-30T05:23:08.878Z,99.90
2018-09-30T05:25:37.440Z,99.90
2018-09-30T05:28:07.210Z,99.90
2018-09-30T05:30:35.760Z,99.90
2018-09-30T05:33:05.248Z,99.90
2018-09-30T05:35:33.758Z,99.90
2018-09-30T05:38:02.312Z,99.90
2018-09-30T05:40:30.839Z,99.90
2018-09-30T05:42:59.364Z,99.90
2018-09-30T05:45:27.932Z,99.90
2018-09-30T05:47:56.502Z,99.90
2018-09-30T05:50:24.981Z,99.90
2018-09-30T05:52:53.559Z,99.90
2018-09-30T05:55:22.119Z,99.90
2018-09-30T05:57:50.723Z,99.90
2018-09-30T06:00:19.226Z,99.90
2018-09-30T06:02:47.788Z,99.90
2018-09-30T06:05:16.328Z,99.90
2018-09-30T06:07:45.131Z,99.90
2018-09-30T06:10:13.598Z,99.90
2018-09-30T06:12:42.134Z,99.90
2018-09-30T06:15:10.642Z,99.90
2018-09-30T06:17:39.198Z,99.90
2018-09-30T06:20:08.114Z,99.90
2018-09-30T06:22:36.637Z,99.90
2018-09-30T06:25:05.191Z,99.90
2018-09-30T06:27:35.394Z,99.90
2018-09-30T06:30:03.897Z,99.90
2018-09-30T06:32:32.387Z,99.90
2018-09-30T06:35:00.926Z,99.90
2018-09-30T06:37:29.478Z,99.90
2018-09-30T06:39:58.034Z,99.90
2018-09-30T06:42:26.514Z,99.90
2018-09-30T06:44:55.157Z,99.90
2018-09-30T06:47:24.186Z,99.90
2018-09-30T06:49:52.782Z,99.90
2018-09-30T06:52:21.322Z,99.90
2018-09-30T06:54:49.907Z,99.90
2018-09-30T06:57:18.424Z,99.90
2018-09-30T06:59:47.262Z,99.90
2018-09-30T07:02:16.366Z,99.90
2018-09-30T07:04:44.893Z,99.90
2018-09-30T07:07:13.357Z,99.90
2018-09-30T07:09:42.104Z,99.90
2018-09-30T07:12:10.610Z,99.90
2018-09-30T07:14:39.136Z,99.90
2018-09-30T07:17:07.875Z,99.90
2018-09-30T07:19:36.486Z,99.90
2018-09-30T07:22:05.009Z,99.90
2018-09-30T07:24:33.611Z,99.90
2018-09-30T07:27:02.126Z,99.90
2018-09-30T07:29:30.674Z,99.90
2018-09-30T07:31:59.216Z,99.90
2018-09-30T07:34:27.707Z,99.90
2018-09-30T07:36:56.210Z,99.90
2018-09-30T07:39:24.763Z,99.90
2018-09-30T07:41:53.277Z,99.90
2018-09-30T07:44:21.841Z,99.90
2018-09-30T07:46:50.471Z,99.90
2018-09-30T07:49:19.208Z,99.90
2018-09-30T07:51:48.245Z,99.90
2018-09-30T07:54:16.813Z,99.90
2018-09-30T07:56:45.361Z,99.90
2018-09-30T07:59:13.836Z,99.90
2018-09-30T08:01:42.401Z,99.90
2018-09-30T08:04:10.958Z,99.90
2018-09-30T08:06:39.639Z,99.90
2018-09-30T08:09:08.972Z,99.90
2018-09-30T08:11:37.593Z,99.90
2018-09-30T08:14:06.160Z,99.90
2018-09-30T08:16:34.742Z,99.90
2018-09-30T08:19:03.305Z,99.90
2018-09-30T08:21:31.947Z,99.90
2018-09-30T08:24:00.643Z,99.90
2018-09-30T08:26:29.105Z,99.90
2018-09-30T08:28:57.718Z,99.90
2018-09-30T08:31:26.237Z,99.90
2018-09-30T08:33:55.608Z,99.90
2018-09-30T08:36:24.127Z,99.90
2018-09-30T08:38:52.682Z,99.90
2018-09-30T08:41:21.342Z,99.90
2018-09-30T08:43:49.963Z,99.90
2018-09-30T08:46:18.627Z,99.90
2018-09-30T08:48:47.546Z,99.90
2018-09-30T08:51:16.084Z,99.90
2018-09-30T08:53:44.662Z,99.90
2018-09-30T08:56:13.140Z,99.90
2018-09-30T08:58:41.626Z,99.90
2018-09-30T09:01:10.164Z,99.90
2018-09-30T09:03:38.677Z,99.90
2018-09-30T09:06:07.312Z,99.90
2018-09-30T09:08:35.844Z,99.90
2018-09-30T09:11:04.362Z,99.90
2018-09-30T09:13:32.876Z,99.90
2018-09-30T09:16:02.072Z,99.90
2018-09-30T09:18:30.617Z,99.90
2018-09-30T09:20:59.251Z,99.90
2018-09-30T09:23:28.634Z,99.90
2018-09-30T09:25:57.145Z,99.90
2018-09-30T09:28:25.709Z,99.90
2018-09-30T09:30:54.267Z,99.90
2018-09-30T09:33:22.865Z,99.90
2018-09-30T09:35:51.388Z,99.90
2018-09-30T09:38:19.968Z,99.90
2018-09-30T09:40:48.528Z,99.90
2018-09-30T09:43:17.032Z,99.90
2018-09-30T09:45:45.596Z,99.90
2018-09-30T09:48:14.124Z,99.90
2018-09-30T09:50:42.711Z,99.90
2018-09-30T09:53:11.250Z,99.90
2018-09-30T09:55:39.838Z,99.90
2018-09-30T09:58:08.317Z,99.90
2018-09-30T10:00:42.109Z,99.90
2018-09-30T10:03:10.648Z,99.90
2018-09-30T10:05:39.194Z,99.40
2018-09-30T10:08:07.794Z,99.30
2018-09-30T10:10:36.648Z,99.30
2018-09-30T10:13:05.192Z,99.20
2018-09-30T10:15:33.763Z,98.80
2018-09-30T10:18:02.317Z,98.10
2018-09-30T10:20:30.809Z,98.20
2018-09-30T10:22:59.357Z,97.60
2018-09-30T10:25:27.918Z,97.30
2018-09-30T10:27:56.504Z,97.30
2018-09-30T10:30:25.060Z,97.30
2018-09-30T10:32:53.633Z,97.40
2018-09-30T10:35:22.146Z,97.10
2018-09-30T10:37:50.674Z,96.60
2018-09-30T10:40:19.203Z,96.10
2018-09-30T10:42:47.737Z,95.90
2018-09-30T10:45:16.570Z,95.70
2018-09-30T10:47:45.153Z,95.60
2018-09-30T10:50:13.734Z,95.50
2018-09-30T10:52:42.267Z,95.20
2018-09-30T10:55:10.833Z,94.90
2018-09-30T10:57:39.345Z,94.80
2018-09-30T11:00:07.855Z,94.50
2018-09-30T11:02:36.392Z,94.00
2018-09-30T11:05:05.635Z,93.40
2018-09-30T11:07:34.293Z,93.10
2018-09-30T11:10:02.911Z,92.20
2018-09-30T11:12:31.471Z,90.90
2018-09-30T11:15:00.052Z,90.70
2018-09-30T11:17:29.741Z,89.50
2018-09-30T11:19:58.283Z,89.10
2018-09-30T11:22:27.738Z,88.60
2018-09-30T11:24:56.157Z,88.50
2018-09-30T11:27:24.892Z,87.70
2018-09-30T11:29:53.444Z,87.10
2018-09-30T11:32:22.006Z,82.50
2018-09-30T11:34:50.558Z,81.20
2018-09-30T11:37:19.108Z,80.10
2018-09-30T11:39:47.667Z,78.60
2018-09-30T11:42:16.167Z,76.20
2018-09-30T11:44:44.709Z,75.30
2018-09-30T11:47:13.228Z,72.70
2018-09-30T11:49:41.832Z,71.40
2018-09-30T11:52:10.427Z,69.80
2018-09-30T11:54:38.963Z,67.30
2018-09-30T11:57:07.446Z,66.80
2018-09-30T11:59:35.970Z,67.40
2018-09-30T12:02:04.570Z,66.70
2018-09-30T12:04:33.102Z,66.90
2018-09-30T12:07:01.643Z,64.80
2018-09-30T12:09:30.130Z,64.20
2018-09-30T12:11:59.590Z,63.90
2018-09-30T12:14:28.199Z,64.20
2018-09-30T12:16:56.686Z,65.30
2018-09-30T12:19:25.183Z,65.10
2018-09-30T12:21:53.690Z,63.20
2018-09-30T12:24:22.200Z,62.30
2018-09-30T12:26:50.726Z,61.90
2018-09-30T12:29:19.232Z,62.10
2018-09-30T12:31:48.457Z,62.30
2018-09-30T12:34:16.969Z,61.40
2018-09-30T12:36:45.450Z,59.30
2018-09-30T12:39:14.025Z,58.40
2018-09-30T12:41:42.554Z,57.10
2018-09-30T12:44:11.157Z,56.60
2018-09-30T12:46:39.678Z,54.60
2018-09-30T12:49:08.270Z,54.10
2018-09-30T12:51:36.807Z,53.40
2018-09-30T12:54:05.324Z,52.60
2018-09-30T12:56:33.891Z,51.40
2018-09-30T12:59:02.391Z,49.10
2018-09-30T13:01:30.966Z,48.30
2018-09-30T13:03:59.626Z,47.20
2018-09-30T13:06:28.157Z,47.00
2018-09-30T13:08:56.763Z,44.70
2018-09-30T13:11:25.802Z,44.00
2018-09-30T13:13:54.366Z,43.50
2018-09-30T13:16:23.650Z,43.80
2018-09-30T13:18:52.195Z,43.80
2018-09-30T13:21:20.700Z,43.40
2018-09-30T13:23:49.240Z,43.00
2018-09-30T13:26:17.745Z,42.90
2018-09-30T13:28:46.497Z,42.20
2018-09-30T13:31:15.052Z,41.10
2018-09-30T13:33:43.609Z,37.20
2018-09-30T13:36:12.159Z,30.70
2018-09-30T13:38:40.702Z,28.30
2018-09-30T13:41:09.560Z,24.70
2018-09-30T13:43:37.971Z,23.70
2018-09-30T13:46:06.654Z,23.00
2018-09-30T13:48:35.190Z,21.20
2018-09-30T13:51:03.784Z,21.40
2018-09-30T13:53:32.390Z,21.00
2018-09-30T13:56:00.948Z,21.90
2018-09-30T13:58:30.164Z,23.50
2018-09-30T14:00:58.654Z,25.10
2018-09-30T14:03:27.223Z,26.40
2018-09-30T14:05:55.823Z,27.50
2018-09-30T14:08:24.358Z,27.80
2018-09-30T14:10:52.890Z,28.60
2018-09-30T14:13:22.626Z,29.10
2018-09-30T14:15:51.142Z,29.30
2018-09-30T14:18:19.638Z,29.50
2018-09-30T14:20:48.139Z,29.50
2018-09-30T14:23:16.676Z,29.50
2018-09-30T14:25:45.257Z,29.40
2018-09-30T14:28:13.813Z,30.00
2018-09-30T14:30:42.364Z,30.40
2018-09-30T14:33:11.669Z,31.00
2018-09-30T14:35:40.211Z,31.80
2018-09-30T14:38:08.722Z,31.90
2018-09-30T14:40:37.247Z,33.10
2018-09-30T14:43:05.778Z,34.10
2018-09-30T14:45:34.328Z,34.80
2018-09-30T14:48:02.879Z,35.20
2018-09-30T14:50:31.933Z,36.00
2018-09-30T14:53:00.461Z,36.40
2018-09-30T14:55:29.430Z,36.90
2018-09-30T14:57:58.558Z,37.20
2018-09-30T15:00:27.110Z,37.60
2018-09-30T15:02:56.239Z,38.00
2018-09-30T15:05:24.761Z,38.60
2018-09-30T15:07:53.357Z,39.00
2018-09-30T15:10:21.930Z,38.80
2018-09-30T15:12:50.449Z,39.10
2018-09-30T15:15:18.938Z,39.70
2018-09-30T15:17:47.471Z,39.40
2018-09-30T15:20:16.004Z,39.30
2018-09-30T15:22:44.520Z,40.00
2018-09-30T15:25:13.066Z,39.70
2018-09-30T15:27:41.608Z,38.40
2018-09-30T15:30:10.093Z,38.20
2018-09-30T15:32:38.630Z,38.70
2018-09-30T15:35:07.151Z,38.70
2018-09-30T15:37:35.697Z,39.40
2018-09-30T15:40:04.201Z,39.90
2018-09-30T15:42:32.795Z,40.10
2018-09-30T15:45:01.293Z,40.60
2018-09-30T15:47:29.769Z,40.80
2018-09-30T15:49:58.530Z,41.20
2018-09-30T15:52:27.353Z,41.80
2018-09-30T15:54:55.911Z,42.00
2018-09-30T15:57:24.436Z,42.60
2018-09-30T15:59:52.956Z,43.10
2018-09-30T16:02:21.495Z,43.30
2018-09-30T16:04:49.996Z,43.90
2018-09-30T16:07:18.543Z,43.90
2018-09-30T16:09:47.063Z,44.70
2018-09-30T16:12:15.601Z,44.90
2018-09-30T16:14:44.134Z,45.80
2018-09-30T16:17:12.641Z,45.80
2018-09-30T16:19:41.169Z,46.20
2018-09-30T16:22:09.701Z,46.70
2018-09-30T16:24:38.221Z,47.20
2018-09-30T16:27:06.747Z,47.80
2018-09-30T16:29:35.253Z,48.10
2018-09-30T16:32:03.812Z,48.70
2018-09-30T16:34:32.333Z,49.10
2018-09-30T16:37:00.902Z,49.80
2018-09-30T16:39:29.425Z,49.90
2018-09-30T16:41:57.951Z,50.00
2018-09-30T16:44:26.502Z,50.30
2018-09-30T16:46:55.001Z,50.70
2018-09-30T16:49:23.507Z,51.00
2018-09-30T16:51:52.063Z,51.50
2018-09-30T16:54:20.663Z,51.60
2018-09-30T16:56:49.188Z,51.40
2018-09-30T16:59:17.707Z,52.30
2018-09-30T17:01:46.215Z,52.80
2018-09-30T17:04:14.785Z,52.90
2018-09-30T17:06:43.368Z,53.30
2018-09-30T17:09:11.856Z,53.60
2018-09-30T17:11:40.361Z,54.20
2018-09-30T17:14:08.959Z,54.30
2018-09-30T17:16:37.488Z,54.40
2018-09-30T17:19:06.562Z,54.70
2018-09-30T17:21:35.071Z,55.00
2018-09-30T17:24:03.601Z,55.30
2018-09-30T17:26:32.153Z,55.60
2018-09-30T17:29:00.702Z,55.60
2018-09-30T17:31:29.234Z,55.90
2018-09-30T17:33:57.740Z,56.20
2018-09-30T17:36:26.259Z,57.00
2018-09-30T17:38:55.537Z,56.50
2018-09-30T17:41:24.045Z,56.70
2018-09-30T17:43:52.608Z,56.80
2018-09-30T17:46:21.082Z,57.00
2018-09-30T17:48:49.644Z,57.10
2018-09-30T17:51:18.144Z,57.40
2018-09-30T17:53:47.197Z,57.50
2018-09-30T17:56:15.694Z,57.50
2018-09-30T17:58:44.368Z,57.80
2018-09-30T18:01:12.909Z,57.80
2018-09-30T18:03:42.075Z,58.60
2018-09-30T18:06:10.613Z,58.80
2018-09-30T18:08:39.122Z,58.90
2018-09-30T18:11:08.225Z,58.90
2018-09-30T18:13:36.725Z,59.10
2018-09-30T18:16:05.269Z,59.20
2018-09-30T18:18:33.921Z,60.10
2018-09-30T18:21:02.642Z,59.60
2018-09-30T18:23:31.511Z,59.80
2018-09-30T18:26:00.367Z,60.00
2018-09-30T18:28:29.209Z,60.20
2018-09-30T18:30:57.979Z,60.60
2018-09-30T18:33:26.566Z,60.80
2018-09-30T18:35:55.141Z,60.90
2018-09-30T18:38:23.679Z,61.50
2018-09-30T18:40:52.355Z,61.70
2018-09-30T18:43:21.321Z,61.60
2018-09-30T18:45:50.137Z,61.80
2018-09-30T18:48:18.996Z,61.90
2018-09-30T18:50:47.884Z,61.80
2018-09-30T18:53:16.860Z,61.90
2018-09-30T18:55:45.670Z,62.10
2018-09-30T18:58:14.519Z,62.00
2018-09-30T19:00:43.379Z,62.10
2018-09-30T19:03:12.801Z,62.50
2018-09-30T19:05:41.645Z,62.90
2018-09-30T19:08:10.510Z,63.20
2018-09-30T19:10:39.361Z,63.30
2018-09-30T19:13:08.174Z,63.60
2018-09-30T19:15:37.009Z,63.80
2018-09-30T19:18:05.836Z,64.30
2018-09-30T19:20:34.664Z,64.60
2018-09-30T19:23:03.557Z,65.00
2018-09-30T19:25:32.170Z,65.20
2018-09-30T19:28:00.745Z,65.40
2018-09-30T19:30:29.279Z,65.40
2018-09-30T19:32:57.840Z,65.70
2018-09-30T19:35:26.356Z,65.80
2018-09-30T19:37:54.880Z,66.10
2018-09-30T19:40:24.164Z,66.40
2018-09-30T19:42:52.717Z,66.60
2018-09-30T19:45:21.261Z,66.80
2018-09-30T19:47:49.773Z,67.10
2018-09-30T19:50:18.373Z,67.30
2018-09-30T19:52:46.892Z,67.60
2018-09-30T19:55:15.531Z,67.90
2018-09-30T19:57:44.056Z,68.10
2018-09-30T20:00:12.609Z,68.50
2018-09-30T20:02:41.149Z,68.80
2018-09-30T20:05:09.716Z,68.90
2018-09-30T20:07:38.312Z,69.10
2018-09-30T20:10:06.872Z,68.90
2018-09-30T20:12:35.377Z,69.30
2018-09-30T20:15:04.007Z,69.60
2018-09-30T20:17:32.498Z,69.70
2018-09-30T20:20:01.148Z,69.80
2018-09-30T20:22:29.688Z,69.70
2018-09-30T20:24:58.303Z,69.90
2018-09-30T20:27:26.743Z,70.10
2018-09-30T20:29:55.269Z,70.20
2018-09-30T20:32:23.906Z,70.50
2018-09-30T20:34:52.430Z,70.70
2018-09-30T20:37:21.144Z,71.30
2018-09-30T20:39:49.706Z,71.80
2018-09-30T20:42:18.195Z,72.00
2018-09-30T20:44:46.696Z,72.30
2018-09-30T20:47:15.242Z,73.00
2018-09-30T20:49:43.785Z,73.70
2018-09-30T20:52:12.336Z,74.20
2018-09-30T20:54:40.922Z,74.70
2018-09-30T20:57:09.492Z,75.10
2018-09-30T20:59:38.102Z,75.80
2018-09-30T21:02:07.012Z,76.00
2018-09-30T21:04:35.512Z,76.50
2018-09-30T21:07:04.131Z,77.10
2018-09-30T21:09:32.656Z,77.90
2018-09-30T21:12:01.183Z,78.60
2018-09-30T21:14:29.723Z,79.30
2018-09-30T21:16:58.255Z,79.80
2018-09-30T21:19:26.773Z,81.30
2018-09-30T21:21:55.317Z,82.00
2018-09-30T21:24:23.982Z,82.70
2018-09-30T21:26:52.490Z,83.70
2018-09-30T21:29:21.035Z,84.70
2018-09-30T21:31:49.571Z,85.60
2018-09-30T21:34:18.727Z,86.70
2018-09-30T21:36:47.229Z,88.60
2018-09-30T21:39:15.788Z,90.20
2018-09-30T21:41:44.367Z,90.80
2018-09-30T21:44:12.981Z,91.30
2018-09-30T21:46:41.617Z,92.60
2018-09-30T21:49:10.723Z,93.00
2018-09-30T21:51:39.172Z,94.30
2018-09-30T21:54:07.687Z,95.30
2018-09-30T21:56:36.215Z,96.80
2018-09-30T21:59:04.691Z,98.20
2018-09-30T22:01:33.223Z,99.70
2018-09-30T22:04:01.761Z,99.90
2018-09-30T22:06:30.303Z,99.90
2018-09-30T22:08:58.819Z,99.90
2018-09-30T22:11:27.372Z,99.90
2018-09-30T22:13:55.879Z,99.90
2018-09-30T22:16:24.434Z,99.90
2018-09-30T22:18:52.946Z,99.90
2018-09-30T22:21:21.470Z,99.90
2018-09-30T22:23:50.007Z,99.90
2018-09-30T22:26:18.571Z,99.90
2018-09-30T22:28:47.068Z,99.90
2018-09-30T22:31:15.773Z,99.90
2018-09-30T22:33:44.377Z,99.90
2018-09-30T22:36:12.910Z,99.90
2018-09-30T22:38:41.439Z,99.90
2018-09-30T22:41:09.953Z,99.90
2018-09-30T22:43:38.452Z,99.90
2018-09-30T22:46:07.019Z,99.90
2018-09-30T22:48:35.575Z,99.90
2018-09-30T22:51:04.145Z,99.90
2018-09-30T22:53:32.804Z,99.90
2018-09-30T22:56:01.331Z,99.90
2018-09-30T22:58:29.891Z,99.90
2018-09-30T23:00:58.421Z,99.90
2018-09-30T23:03:27.114Z,99.90
2018-09-30T23:05:55.629Z,99.90
2018-09-30T23:08:24.499Z,99.90
2018-09-30T23:10:53.049Z,99.90
2018-09-30T23:13:21.552Z,99.90
2018-09-30T23:15:50.071Z,99.90
2018-09-30T23:18:18.590Z,99.90
2018-09-30T23:20:47.123Z,99.90
2018-09-30T23:23:15.673Z,99.90
2018-09-30T23:25:44.283Z,99.90
2018-09-30T23:28:12.914Z,99.90
2018-09-30T23:30:41.424Z,99.90
2018-09-30T23:33:09.955Z,99.90
2018-09-30T23:35:38.488Z,99.90
2018-09-30T23:38:07.013Z,99.90
2018-09-30T23:40:35.553Z,99.90
2018-09-30T23:43:04.078Z,99.90
2018-09-30T23:45:32.565Z,99.90
2018-09-30T23:48:01.132Z,99.90
2018-09-30T23:50:29.682Z,99.90
2018-09-30T23:52:58.243Z,99.90
2018-09-30T23:55:26.771Z,99.90
2018-09-30T23:58:11.954Z,99.90
